Pagrindinis puslapis
METAR-TAF:

METAR-TAF

Oro uostai :

Akra, Gana

platuma: 05-36N, ilguma: 000-10W, Aukštis: 68 m

Dabartinis oras

Ataskaita buvo paskelbta 41 minutes, ne 00:00 UTC
Vėjas 7 kt iš Vakarų/Pietvakarių
Temperatūra 27°C
Drėgmė 94%
Slėgis 1012 hPa
Matomumas 10 km arba daugiau
nėra debesų žemiau 1500 m ir nėra kamuolinių lietaus debesų

METAR: DGAA 290000Z 24007KT CAVOK 27/26 Q1012 NOSIG

Laikas: 00:41 (00:41 UTC)

Prognozė

Ataskaita buvo paskelbta 1 valandą ir 41 minutes, ne 23:00 UTC
Prognozė galioja nuo 29 metu 00 UTC su 30 metu 06 UTC
Vėjas 6 kt iš Vakarų
Matomumas 10 km arba daugiau
nėra debesų žemiau 1500 m ir nėra kamuolinių lietaus debesų
Laikinai
nuo 29 metu 06 UTC su 29 metu 09 UTC
Matomumas: 7000 m
Tapsmas
nuo 29 metu 11 UTC su 29 metu 13 UTC
Vėjas 15 kt iš Pietų
Mažai debesys ne aukštis 2000 ft

TAF: DGAA 282300Z 2900/3006 27006KT CAVOK TEMPO 2906/2909 7000 BECMG 2911/2913 19015KT FEW020

Orai ataskaitas ir orų prognozės (METAR, TAF).

turimą stotys yra geltonos ir raudonos taškus žemėlapyje.

Perkelti pele per norėdami pamatyti stoties vardą.

Tada spustelėkite, norėdami matyti oro stebėjimo ir prognozės.

Norėdami pakeisti žemėlapį: spustelėkite ant žalios mygtukų su juodo kryžiaus žemyn,; žalią mygtuką su brūkšneliu, jei norite nutolinti; arba žalių rodyklių gretimoms žemėlapius.


METAR-TAF: